createdAt,value
2016-09-19T00:00:03.595Z,0
2016-09-19T00:00:44.241Z,0
2016-09-19T00:01:24.930Z,0
2016-09-19T00:02:05.640Z,0
2016-09-19T00:02:46.327Z,0
2016-09-19T00:03:26.984Z,0
2016-09-19T00:04:07.663Z,0
2016-09-19T00:04:48.350Z,0
2016-09-19T00:05:29.049Z,0
2016-09-19T00:06:09.706Z,0
2016-09-19T00:06:50.371Z,0
2016-09-19T00:07:31.091Z,0
2016-09-19T00:08:11.789Z,0
2016-09-19T00:08:52.417Z,0
2016-09-19T00:09:33.116Z,0
2016-09-19T00:10:13.827Z,0
2016-09-19T00:10:54.470Z,0
2016-09-19T00:11:35.141Z,0
2016-09-19T00:12:15.811Z,0
2016-09-19T00:12:56.505Z,0
2016-09-19T00:13:37.182Z,0
2016-09-19T00:14:17.875Z,0
2016-09-19T00:14:58.519Z,0
2016-09-19T00:15:39.212Z,0
2016-09-19T00:16:19.917Z,0
2016-09-19T00:17:00.588Z,0
2016-09-19T00:17:41.303Z,0
2016-09-19T00:18:21.998Z,0
2016-09-19T00:19:02.656Z,0
2016-09-19T00:19:43.361Z,0
2016-09-19T00:20:24.077Z,0
2016-09-19T00:21:04.752Z,0
2016-09-19T00:21:45.419Z,0
2016-09-19T00:22:26.117Z,0
2016-09-19T00:23:06.772Z,0
2016-09-19T00:23:47.423Z,0
2016-09-19T00:24:28.119Z,0
2016-09-19T00:25:08.821Z,0
2016-09-19T00:25:49.508Z,0
2016-09-19T00:26:30.223Z,0
2016-09-19T00:27:10.869Z,0
2016-09-19T00:27:51.524Z,0
2016-09-19T00:28:32.204Z,0
2016-09-19T00:29:12.843Z,0
2016-09-19T00:29:53.544Z,0
2016-09-19T00:30:34.230Z,0
2016-09-19T00:31:14.931Z,0
2016-09-19T00:31:55.608Z,0
2016-09-19T00:32:36.254Z,0
2016-09-19T00:33:16.999Z,0
2016-09-19T00:33:57.680Z,0
2016-09-19T00:34:38.341Z,0
2016-09-19T00:35:19.004Z,0
2016-09-19T00:35:59.700Z,0
2016-09-19T00:36:40.378Z,0
2016-09-19T00:37:21.066Z,0
2016-09-19T00:38:01.782Z,0
2016-09-19T00:38:42.505Z,0
2016-09-19T00:39:23.202Z,0
2016-09-19T00:40:03.894Z,0
2016-09-19T00:40:44.577Z,0
2016-09-19T00:41:25.252Z,0
2016-09-19T00:42:05.914Z,0
2016-09-19T00:42:46.570Z,0
2016-09-19T00:43:27.238Z,0
2016-09-19T00:44:07.907Z,0
2016-09-19T00:44:48.566Z,0
2016-09-19T00:45:29.263Z,0
2016-09-19T00:46:09.935Z,0
2016-09-19T00:46:50.628Z,0
2016-09-19T00:47:31.286Z,0
2016-09-19T00:48:11.994Z,0
2016-09-19T00:48:52.736Z,0
2016-09-19T00:49:33.415Z,0
2016-09-19T00:50:14.091Z,0
2016-09-19T00:50:54.768Z,0
2016-09-19T00:51:35.431Z,0
2016-09-19T00:52:16.150Z,0
2016-09-19T00:52:56.827Z,0
2016-09-19T00:53:37.555Z,0
2016-09-19T00:54:18.264Z,0
2016-09-19T00:54:58.915Z,0
2016-09-19T00:55:39.648Z,0
2016-09-19T00:56:20.285Z,0
2016-09-19T00:57:00.973Z,0
2016-09-19T00:57:41.677Z,0
2016-09-19T00:58:22.332Z,0
2016-09-19T00:59:03.048Z,0
2016-09-19T00:59:43.741Z,0
2016-09-19T01:00:24.441Z,0
2016-09-19T01:01:05.129Z,0
2016-09-19T01:01:45.781Z,0
2016-09-19T01:02:26.425Z,0
2016-09-19T01:03:07.096Z,0
2016-09-19T01:03:47.806Z,0
2016-09-19T01:04:28.499Z,0
2016-09-19T01:05:09.146Z,0
2016-09-19T01:05:49.833Z,0
2016-09-19T01:06:30.529Z,0
2016-09-19T01:07:11.208Z,0
2016-09-19T01:07:51.917Z,0
2016-09-19T01:08:32.615Z,0
2016-09-19T01:09:13.336Z,0
2016-09-19T01:09:54.012Z,0
2016-09-19T01:10:34.697Z,0
2016-09-19T01:11:15.385Z,0
2016-09-19T01:11:56.085Z,0
2016-09-19T01:12:36.805Z,0
2016-09-19T01:13:17.508Z,0
2016-09-19T01:13:58.191Z,0
2016-09-19T01:14:38.876Z,0
2016-09-19T01:15:19.541Z,0
2016-09-19T01:16:00.233Z,0
2016-09-19T01:16:40.904Z,0
2016-09-19T01:17:21.611Z,0
2016-09-19T01:18:02.310Z,0
2016-09-19T01:18:43.007Z,0
2016-09-19T01:19:23.703Z,0
2016-09-19T01:20:04.389Z,0
2016-09-19T01:20:45.036Z,0
2016-09-19T01:21:25.685Z,0
2016-09-19T01:22:06.395Z,0
2016-09-19T01:22:47.111Z,0
2016-09-19T01:23:27.815Z,0
2016-09-19T01:24:08.479Z,0
2016-09-19T01:24:49.143Z,0
2016-09-19T01:25:29.849Z,0
2016-09-19T01:26:10.564Z,0
2016-09-19T01:26:51.245Z,0
2016-09-19T01:27:31.921Z,0
2016-09-19T01:28:12.597Z,0
2016-09-19T01:28:53.250Z,0
2016-09-19T01:29:33.975Z,0
2016-09-19T01:30:14.691Z,0
2016-09-19T01:30:55.381Z,0
2016-09-19T01:31:36.073Z,0
2016-09-19T01:32:16.759Z,0
2016-09-19T01:32:57.464Z,0
2016-09-19T01:33:38.117Z,0
2016-09-19T01:34:18.791Z,0
2016-09-19T01:34:59.463Z,0
2016-09-19T01:35:40.145Z,0
2016-09-19T01:36:20.841Z,0
2016-09-19T01:37:01.477Z,0
2016-09-19T01:37:42.132Z,0
2016-09-19T01:38:22.821Z,0
2016-09-19T01:39:03.555Z,0
2016-09-19T01:39:44.237Z,0
2016-09-19T01:40:24.919Z,0
2016-09-19T01:41:05.588Z,0
2016-09-19T01:41:46.280Z,0
2016-09-19T01:42:26.926Z,0
2016-09-19T01:43:07.583Z,0
2016-09-19T01:43:48.231Z,0
2016-09-19T01:44:28.909Z,0
2016-09-19T01:45:09.615Z,0
2016-09-19T01:45:50.241Z,0
2016-09-19T01:46:30.879Z,0
2016-09-19T01:47:11.588Z,0
2016-09-19T01:47:52.282Z,0
2016-09-19T01:48:32.973Z,0
2016-09-19T01:49:13.614Z,0
2016-09-19T01:49:54.276Z,0
2016-09-19T01:50:34.967Z,0
2016-09-19T01:51:15.665Z,0
2016-09-19T01:51:56.334Z,0
2016-09-19T01:52:37.052Z,0
2016-09-19T01:53:17.695Z,0
2016-09-19T01:53:58.377Z,0
2016-09-19T01:54:39.079Z,0
2016-09-19T01:55:19.808Z,0
2016-09-19T01:56:00.501Z,0
2016-09-19T01:56:41.186Z,0
2016-09-19T01:57:21.898Z,0
2016-09-19T01:58:02.536Z,0
2016-09-19T01:58:43.191Z,0
2016-09-19T01:59:23.858Z,0
2016-09-19T02:00:04.541Z,0
2016-09-19T02:00:45.213Z,0
2016-09-19T02:01:25.868Z,0
2016-09-19T02:02:06.571Z,0
2016-09-19T02:02:47.261Z,0
2016-09-19T02:03:27.906Z,0
2016-09-19T02:04:08.586Z,0
2016-09-19T02:04:49.335Z,0
2016-09-19T02:05:29.987Z,0
2016-09-19T02:06:10.688Z,0
2016-09-19T02:06:51.371Z,0
2016-09-19T02:07:32.062Z,0
2016-09-19T02:08:12.725Z,0
2016-09-19T02:08:53.403Z,0
2016-09-19T02:09:34.107Z,0
2016-09-19T02:10:14.794Z,0
2016-09-19T02:10:55.421Z,0
2016-09-19T02:11:36.048Z,0
2016-09-19T02:12:16.761Z,0
2016-09-19T02:12:57.426Z,0
2016-09-19T02:13:38.110Z,0
2016-09-19T02:14:18.803Z,0
2016-09-19T02:14:59.491Z,0
2016-09-19T02:15:40.170Z,0
2016-09-19T02:16:20.879Z,0
2016-09-19T02:17:01.563Z,0
2016-09-19T02:17:42.203Z,0
2016-09-19T02:18:22.905Z,0
2016-09-19T02:19:03.571Z,0
2016-09-19T02:19:44.256Z,0
2016-09-19T02:20:24.920Z,0
2016-09-19T02:21:05.615Z,0
2016-09-19T02:21:46.278Z,0
2016-09-19T02:22:26.981Z,0
2016-09-19T02:23:07.697Z,0
2016-09-19T02:23:48.378Z,0
2016-09-19T02:24:29.047Z,0
2016-09-19T02:25:09.780Z,0
2016-09-19T02:25:50.490Z,0
2016-09-19T02:26:31.155Z,0
2016-09-19T02:27:11.851Z,0
2016-09-19T02:27:52.584Z,0
2016-09-19T02:28:33.274Z,0
2016-09-19T02:29:13.975Z,0
2016-09-19T02:29:54.707Z,0
2016-09-19T02:30:35.395Z,0
2016-09-19T02:31:16.093Z,0
2016-09-19T02:31:56.766Z,0
2016-09-19T02:32:37.449Z,0
2016-09-19T02:33:18.149Z,0
2016-09-19T02:33:58.829Z,0
2016-09-19T02:34:39.545Z,0
2016-09-19T02:35:20.216Z,0
2016-09-19T02:36:00.920Z,0
2016-09-19T02:36:41.622Z,0
2016-09-19T02:37:22.284Z,0
2016-09-19T02:38:02.946Z,0
2016-09-19T02:38:43.604Z,0
2016-09-19T02:39:24.290Z,0
2016-09-19T02:40:04.966Z,0
2016-09-19T02:40:45.616Z,0
2016-09-19T02:41:26.281Z,0
2016-09-19T02:42:07.029Z,0
2016-09-19T02:42:47.697Z,0
2016-09-19T02:43:28.353Z,0
2016-09-19T02:44:09.026Z,0
2016-09-19T02:44:49.723Z,0
2016-09-19T02:45:30.376Z,0
2016-09-19T02:46:11.091Z,0
2016-09-19T02:46:51.783Z,0
2016-09-19T02:47:32.482Z,0
2016-09-19T02:48:13.128Z,0
2016-09-19T02:48:53.808Z,0
2016-09-19T02:49:34.465Z,0
2016-09-19T02:50:15.179Z,0
2016-09-19T02:50:55.873Z,0
2016-09-19T02:51:36.570Z,0
2016-09-19T02:52:17.264Z,0
2016-09-19T02:52:57.947Z,0
2016-09-19T02:53:38.627Z,0
2016-09-19T02:54:19.340Z,0
2016-09-19T02:55:00.008Z,0
2016-09-19T02:55:40.745Z,0
2016-09-19T02:56:21.418Z,0
2016-09-19T02:57:02.096Z,0
2016-09-19T02:57:42.769Z,0
2016-09-19T02:58:23.469Z,0
2016-09-19T02:59:04.152Z,0
2016-09-19T02:59:44.865Z,0
2016-09-19T03:00:25.553Z,0
2016-09-19T03:01:06.235Z,0
2016-09-19T03:01:46.908Z,0
2016-09-19T03:02:27.612Z,0
2016-09-19T03:03:08.265Z,0
2016-09-19T03:03:48.962Z,0
2016-09-19T03:04:29.638Z,0
2016-09-19T03:05:10.306Z,0
2016-09-19T03:05:51.047Z,0
2016-09-19T03:06:31.681Z,0
2016-09-19T03:07:12.318Z,0
2016-09-19T03:07:53.033Z,0
2016-09-19T03:08:33.685Z,0
2016-09-19T03:09:14.435Z,0
2016-09-19T03:09:55.111Z,0
2016-09-19T03:10:35.785Z,0
2016-09-19T03:11:16.444Z,0
2016-09-19T03:11:57.187Z,0
2016-09-19T03:12:37.850Z,0
2016-09-19T03:13:18.581Z,0
2016-09-19T03:13:59.239Z,0
2016-09-19T03:14:39.981Z,0
2016-09-19T03:15:20.660Z,0
2016-09-19T03:16:01.353Z,0
2016-09-19T03:16:42.007Z,0
2016-09-19T03:17:22.703Z,0
2016-09-19T03:18:03.374Z,0
2016-09-19T03:18:44.084Z,0
2016-09-19T03:19:24.744Z,0
2016-09-19T03:20:05.422Z,0
2016-09-19T03:20:46.094Z,0
2016-09-19T03:21:26.752Z,0
2016-09-19T03:22:07.420Z,0
2016-09-19T03:22:48.114Z,0
2016-09-19T03:23:28.751Z,0
2016-09-19T03:24:09.459Z,0
2016-09-19T03:24:50.144Z,0
2016-09-19T03:25:30.807Z,0
2016-09-19T03:26:11.504Z,0
2016-09-19T03:26:52.179Z,0
2016-09-19T03:27:32.836Z,0
2016-09-19T03:28:13.505Z,0
2016-09-19T03:28:54.154Z,0
2016-09-19T03:29:34.832Z,0
2016-09-19T03:30:15.539Z,0
2016-09-19T03:30:56.214Z,0
2016-09-19T03:31:36.857Z,0
2016-09-19T03:32:17.573Z,0
2016-09-19T03:32:58.256Z,0
2016-09-19T03:33:38.939Z,0
2016-09-19T03:34:19.623Z,0
2016-09-19T03:35:00.294Z,0
2016-09-19T03:35:40.975Z,0
2016-09-19T03:36:21.661Z,0
2016-09-19T03:37:02.326Z,0
2016-09-19T03:37:42.995Z,0
2016-09-19T03:38:23.628Z,0
2016-09-19T03:39:04.340Z,0
2016-09-19T03:39:44.986Z,0
2016-09-19T03:40:25.627Z,0
2016-09-19T03:41:06.308Z,0
2016-09-19T03:41:46.989Z,0
2016-09-19T03:42:27.684Z,0
2016-09-19T03:43:08.367Z,0
2016-09-19T03:43:49.035Z,0
2016-09-19T03:44:29.709Z,0
2016-09-19T03:45:10.392Z,0
2016-09-19T03:45:51.131Z,0
2016-09-19T03:46:31.792Z,0
2016-09-19T03:47:12.471Z,0
2016-09-19T03:47:53.123Z,0
2016-09-19T03:48:33.765Z,0
2016-09-19T03:49:14.431Z,0
2016-09-19T03:49:55.113Z,0
2016-09-19T03:50:35.839Z,0
2016-09-19T03:51:16.514Z,0
2016-09-19T03:51:57.188Z,0
2016-09-19T03:52:37.883Z,0
2016-09-19T03:53:18.539Z,0
2016-09-19T03:53:59.229Z,0
2016-09-19T03:54:39.940Z,0
2016-09-19T03:55:20.587Z,0
2016-09-19T03:56:01.314Z,0
2016-09-19T03:56:41.998Z,0
2016-09-19T03:57:22.628Z,0
2016-09-19T03:58:03.309Z,0
2016-09-19T03:58:43.997Z,0
2016-09-19T03:59:24.685Z,0
2016-09-19T04:00:05.373Z,0
2016-09-19T04:00:46.063Z,0
2016-09-19T04:01:26.731Z,0
2016-09-19T04:02:07.406Z,0
2016-09-19T04:02:48.105Z,0
2016-09-19T04:03:28.830Z,0
2016-09-19T04:04:09.517Z,0
2016-09-19T04:04:50.237Z,0
2016-09-19T04:05:30.883Z,0
2016-09-19T04:06:11.546Z,0
2016-09-19T04:06:52.246Z,0
2016-09-19T04:07:32.936Z,0
2016-09-19T04:08:13.630Z,0
2016-09-19T04:08:54.318Z,0
2016-09-19T04:09:34.990Z,0
2016-09-19T04:10:15.644Z,0
2016-09-19T04:10:56.260Z,0
2016-09-19T04:11:36.965Z,0
2016-09-19T04:12:17.616Z,0
2016-09-19T04:12:58.265Z,0
2016-09-19T04:13:38.949Z,0
2016-09-19T04:14:19.603Z,0
2016-09-19T04:15:00.303Z,0
2016-09-19T04:15:41.040Z,0
2016-09-19T04:16:21.714Z,0
2016-09-19T04:17:02.406Z,0
2016-09-19T04:17:43.071Z,0
2016-09-19T04:18:23.770Z,0
2016-09-19T04:19:04.453Z,0
2016-09-19T04:19:45.116Z,0
2016-09-19T04:20:25.777Z,0
2016-09-19T04:21:06.434Z,0
2016-09-19T04:21:47.110Z,0
2016-09-19T04:22:27.770Z,0
2016-09-19T04:23:08.430Z,0
2016-09-19T04:23:49.110Z,0
2016-09-19T04:24:29.756Z,0
2016-09-19T04:25:10.460Z,0
2016-09-19T04:25:51.191Z,0
2016-09-19T04:26:31.892Z,0
2016-09-19T04:27:12.583Z,0
2016-09-19T04:27:53.275Z,0
2016-09-19T04:28:33.997Z,0
2016-09-19T04:29:14.671Z,0
2016-09-19T04:29:55.364Z,0
2016-09-19T04:30:36.024Z,0
2016-09-19T04:31:16.655Z,0
2016-09-19T04:31:57.330Z,0
2016-09-19T04:32:38.017Z,0
2016-09-19T04:33:18.646Z,0
2016-09-19T04:33:59.353Z,0
2016-09-19T04:34:40.031Z,0
2016-09-19T04:35:20.722Z,0
2016-09-19T04:36:01.441Z,0
2016-09-19T04:36:42.228Z,0
2016-09-19T04:37:22.928Z,0
2016-09-19T04:38:03.652Z,0
2016-09-19T04:38:44.311Z,0
2016-09-19T04:39:25.004Z,0
2016-09-19T04:40:05.703Z,0
2016-09-19T04:40:46.384Z,0
2016-09-19T04:41:27.075Z,0
2016-09-19T04:42:07.788Z,0
2016-09-19T04:42:48.482Z,0
2016-09-19T04:43:29.191Z,0
2016-09-19T04:44:09.834Z,0
2016-09-19T04:44:50.522Z,0
2016-09-19T04:45:31.189Z,0
2016-09-19T04:46:11.889Z,0
2016-09-19T04:46:52.555Z,0
2016-09-19T04:47:33.231Z,0
2016-09-19T04:48:13.903Z,0
2016-09-19T04:48:54.587Z,0
2016-09-19T04:49:35.227Z,0
2016-09-19T04:50:15.868Z,0
2016-09-19T04:50:56.588Z,0
2016-09-19T04:51:37.272Z,0
2016-09-19T04:52:17.941Z,0
2016-09-19T04:52:58.602Z,0
2016-09-19T04:53:39.291Z,0
2016-09-19T04:54:20.045Z,0
2016-09-19T04:55:00.717Z,0
2016-09-19T04:55:41.413Z,0
2016-09-19T04:56:22.075Z,0
2016-09-19T04:57:02.737Z,0
2016-09-19T04:57:43.439Z,0
2016-09-19T04:58:24.108Z,8
2016-09-19T04:59:04.784Z,12
2016-09-19T04:59:45.441Z,12
2016-09-19T05:00:26.125Z,12
2016-09-19T05:01:06.793Z,12
2016-09-19T05:01:47.496Z,12
2016-09-19T05:02:28.255Z,12
2016-09-19T05:03:08.947Z,12
2016-09-19T05:03:49.633Z,12
2016-09-19T05:04:30.327Z,12
2016-09-19T05:05:10.988Z,12
2016-09-19T05:05:51.652Z,12
2016-09-19T05:06:32.312Z,12
2016-09-19T05:07:13.014Z,12
2016-09-19T05:07:53.685Z,12
2016-09-19T05:08:34.364Z,12
2016-09-19T05:09:15.027Z,12
2016-09-19T05:09:55.746Z,12
2016-09-19T05:10:36.463Z,12
2016-09-19T05:11:17.144Z,12
2016-09-19T05:11:57.819Z,12
2016-09-19T05:12:38.506Z,12
2016-09-19T05:13:19.214Z,12
2016-09-19T05:13:59.897Z,12
2016-09-19T05:14:40.627Z,12
2016-09-19T05:15:21.349Z,12
2016-09-19T05:16:02.047Z,12
2016-09-19T05:16:42.716Z,12
2016-09-19T05:17:23.382Z,12
2016-09-19T05:18:04.086Z,12
2016-09-19T05:18:44.760Z,12
2016-09-19T05:19:25.418Z,16
2016-09-19T05:20:06.131Z,16
2016-09-19T05:20:46.809Z,16
2016-09-19T05:21:27.474Z,16
2016-09-19T05:22:08.160Z,16
2016-09-19T05:22:48.824Z,16
2016-09-19T05:23:29.525Z,16
2016-09-19T05:24:10.232Z,16
2016-09-19T05:24:50.899Z,16
2016-09-19T05:25:31.564Z,16
2016-09-19T05:26:12.256Z,16
2016-09-19T05:26:52.957Z,16
2016-09-19T05:27:33.637Z,16
2016-09-19T05:28:14.340Z,16
2016-09-19T05:28:54.996Z,16
2016-09-19T05:29:35.680Z,16
2016-09-19T05:30:16.376Z,16
2016-09-19T05:30:57.082Z,16
2016-09-19T05:31:37.764Z,16
2016-09-19T05:32:18.411Z,16
2016-09-19T05:32:59.087Z,16
2016-09-19T05:33:39.782Z,16
2016-09-19T05:34:20.475Z,12
2016-09-19T05:35:01.136Z,12
2016-09-19T05:35:41.813Z,12
2016-09-19T05:36:22.574Z,12
2016-09-19T05:37:03.279Z,12
2016-09-19T05:37:43.974Z,16
2016-09-19T05:38:24.662Z,16
2016-09-19T05:39:05.357Z,16
2016-09-19T05:39:46.079Z,16
2016-09-19T05:40:26.792Z,16
2016-09-19T05:41:07.442Z,16
2016-09-19T05:41:48.148Z,16
2016-09-19T05:42:28.787Z,16
2016-09-19T05:43:09.522Z,0
2016-09-19T05:43:50.144Z,0
2016-09-19T05:44:30.833Z,4
2016-09-19T05:45:11.531Z,4
2016-09-19T05:45:52.207Z,4
2016-09-19T05:46:32.910Z,4
2016-09-19T05:47:13.609Z,0
2016-09-19T05:47:54.311Z,4
2016-09-19T05:48:34.962Z,4
2016-09-19T05:49:15.630Z,4
2016-09-19T05:49:56.322Z,4
2016-09-19T05:50:36.971Z,4
2016-09-19T05:51:17.641Z,8
2016-09-19T05:51:58.339Z,8
2016-09-19T05:52:39.038Z,8
2016-09-19T05:53:19.730Z,8
2016-09-19T05:54:00.421Z,12
2016-09-19T05:54:41.115Z,12
2016-09-19T05:55:21.784Z,12
2016-09-19T05:56:02.494Z,12
2016-09-19T05:56:43.183Z,12
2016-09-19T05:57:23.849Z,16
2016-09-19T05:58:04.542Z,16
2016-09-19T05:58:45.259Z,20
2016-09-19T05:59:25.920Z,20
2016-09-19T06:00:06.647Z,24
2016-09-19T06:00:47.335Z,24
2016-09-19T06:01:28.028Z,24
2016-09-19T06:02:08.735Z,24
2016-09-19T06:02:49.418Z,28
2016-09-19T06:03:30.114Z,28
2016-09-19T06:04:10.831Z,28
2016-09-19T06:04:51.536Z,32
2016-09-19T06:05:32.219Z,32
2016-09-19T06:06:12.957Z,32
2016-09-19T06:06:53.673Z,36
2016-09-19T06:07:34.355Z,40
2016-09-19T06:08:15.045Z,40
2016-09-19T06:08:55.712Z,40
2016-09-19T06:09:36.366Z,40
2016-09-19T06:10:17.052Z,44
2016-09-19T06:10:57.737Z,44
2016-09-19T06:11:38.405Z,48
2016-09-19T06:12:19.119Z,48
2016-09-19T06:12:59.827Z,48
2016-09-19T06:13:40.525Z,48
2016-09-19T06:14:21.285Z,48
2016-09-19T06:15:01.988Z,48
2016-09-19T06:15:42.683Z,52
2016-09-19T06:16:23.316Z,52
2016-09-19T06:17:03.989Z,56
2016-09-19T06:17:44.642Z,56
2016-09-19T06:18:25.319Z,56
2016-09-19T06:19:06.009Z,56
2016-09-19T06:19:46.693Z,60
2016-09-19T06:20:27.369Z,56
2016-09-19T06:21:08.066Z,60
2016-09-19T06:21:48.749Z,60
2016-09-19T06:22:29.422Z,60
2016-09-19T06:23:10.124Z,64
2016-09-19T06:23:50.766Z,60
2016-09-19T06:24:31.470Z,64
2016-09-19T06:25:12.213Z,64
2016-09-19T06:25:52.897Z,68
2016-09-19T06:26:33.623Z,64
2016-09-19T06:27:14.306Z,68
2016-09-19T06:27:54.942Z,68
2016-09-19T06:28:35.650Z,68
2016-09-19T06:29:16.337Z,72
2016-09-19T06:29:57.038Z,68
2016-09-19T06:30:37.734Z,72
2016-09-19T06:31:18.450Z,72
2016-09-19T06:31:59.099Z,72
2016-09-19T06:32:39.791Z,72
2016-09-19T06:33:20.527Z,72
2016-09-19T06:34:01.193Z,72
2016-09-19T06:34:41.878Z,76
2016-09-19T06:35:22.561Z,72
2016-09-19T06:36:03.240Z,76
2016-09-19T06:36:43.965Z,68
2016-09-19T06:37:24.695Z,68
2016-09-19T06:38:05.349Z,76
2016-09-19T06:38:46.062Z,76
2016-09-19T06:39:26.746Z,80
2016-09-19T06:40:07.453Z,76
2016-09-19T06:40:48.120Z,68
2016-09-19T06:41:28.802Z,76
2016-09-19T06:42:09.481Z,76
2016-09-19T06:42:50.201Z,76
2016-09-19T06:43:30.891Z,68
2016-09-19T06:44:11.582Z,76
2016-09-19T06:44:52.982Z,76
2016-09-19T06:45:33.671Z,76
2016-09-19T06:46:14.364Z,76
2016-09-19T06:46:55.018Z,76
2016-09-19T06:47:35.701Z,76
2016-09-19T06:48:16.385Z,76
2016-09-19T06:48:57.115Z,80
2016-09-19T06:49:37.814Z,80
2016-09-19T06:50:18.507Z,80
2016-09-19T06:50:59.192Z,80
2016-09-19T06:51:40.701Z,76
2016-09-19T06:52:21.361Z,76
2016-09-19T06:53:02.032Z,76
2016-09-19T06:53:42.714Z,76
2016-09-19T06:54:23.434Z,80
2016-09-19T06:55:04.092Z,80
2016-09-19T06:55:44.821Z,80
2016-09-19T06:56:25.535Z,80
2016-09-19T06:57:07.130Z,76
2016-09-19T06:57:46.991Z,76
2016-09-19T06:58:27.695Z,76
2016-09-19T06:59:08.414Z,76
2016-09-19T06:59:49.116Z,80
2016-09-19T07:00:29.808Z,80
2016-09-19T07:01:10.460Z,76
2016-09-19T07:01:51.131Z,76
2016-09-19T07:02:31.816Z,80
2016-09-19T07:03:12.502Z,76
2016-09-19T07:03:53.193Z,80
2016-09-19T07:04:33.908Z,80
2016-09-19T07:05:14.632Z,80
2016-09-19T07:05:55.314Z,76
2016-09-19T07:06:35.996Z,76
2016-09-19T07:07:16.700Z,80
2016-09-19T07:07:57.419Z,76
2016-09-19T07:08:38.104Z,72
2016-09-19T07:09:18.812Z,76
2016-09-19T07:09:59.450Z,80
2016-09-19T07:10:40.121Z,80
2016-09-19T07:11:20.794Z,76
2016-09-19T07:12:01.527Z,76
2016-09-19T07:12:42.274Z,76
2016-09-19T07:13:22.963Z,76
2016-09-19T07:14:03.656Z,76
2016-09-19T07:14:44.380Z,76
2016-09-19T07:15:25.049Z,72
2016-09-19T07:16:05.731Z,76
2016-09-19T07:16:46.465Z,76
2016-09-19T07:17:27.140Z,72
2016-09-19T07:18:07.838Z,76
2016-09-19T07:18:48.548Z,76
2016-09-19T07:19:29.241Z,72
2016-09-19T07:20:09.916Z,76
2016-09-19T07:20:50.570Z,72
2016-09-19T07:21:31.237Z,72
2016-09-19T07:22:11.948Z,72
2016-09-19T07:22:52.654Z,72
2016-09-19T07:23:33.334Z,76
2016-09-19T07:24:14.050Z,72
2016-09-19T07:24:54.703Z,72
2016-09-19T07:25:35.417Z,64
2016-09-19T07:26:16.122Z,68
2016-09-19T07:26:56.794Z,68
2016-09-19T07:27:37.545Z,72
2016-09-19T07:28:18.246Z,72
2016-09-19T07:28:58.941Z,72
2016-09-19T07:29:39.740Z,72
2016-09-19T07:30:20.435Z,68
2016-09-19T07:31:01.078Z,60
2016-09-19T07:31:41.771Z,60
2016-09-19T07:32:22.428Z,68
2016-09-19T07:33:03.646Z,64
2016-09-19T07:33:43.838Z,60
2016-09-19T07:34:24.496Z,56
2016-09-19T07:35:05.195Z,52
2016-09-19T07:35:45.903Z,56
2016-09-19T07:36:26.609Z,56
2016-09-19T07:37:07.315Z,52
2016-09-19T07:37:47.993Z,60
2016-09-19T07:38:28.691Z,52
2016-09-19T07:39:09.365Z,60
2016-09-19T07:39:50.087Z,68
2016-09-19T07:40:30.732Z,64
2016-09-19T07:41:11.501Z,52
2016-09-19T07:41:52.214Z,52
2016-09-19T07:42:32.891Z,52
2016-09-19T07:43:14.317Z,52
2016-09-19T07:43:54.976Z,60
2016-09-19T07:44:35.664Z,56
2016-09-19T07:45:16.340Z,56
2016-09-19T07:45:57.075Z,56
2016-09-19T07:46:37.753Z,56
2016-09-19T07:47:18.420Z,64
2016-09-19T07:47:59.058Z,52
2016-09-19T07:48:39.746Z,64
2016-09-19T07:49:20.428Z,64
2016-09-19T07:50:01.104Z,60
2016-09-19T07:50:41.827Z,60
2016-09-19T07:51:22.510Z,56
2016-09-19T07:52:03.231Z,60
2016-09-19T07:52:43.988Z,64
2016-09-19T07:53:24.681Z,60
2016-09-19T07:54:05.445Z,60
2016-09-19T07:54:46.152Z,60
2016-09-19T07:55:26.821Z,224
2016-09-19T07:56:07.535Z,292
2016-09-19T07:56:48.212Z,312
2016-09-19T07:57:28.918Z,320
2016-09-19T07:58:09.593Z,316
2016-09-19T07:58:50.260Z,244
2016-09-19T07:59:30.934Z,248
2016-09-19T08:00:11.642Z,244
2016-09-19T08:00:52.327Z,244
2016-09-19T08:01:33.026Z,248
2016-09-19T08:02:13.731Z,248
2016-09-19T08:02:54.457Z,244
2016-09-19T08:03:35.123Z,240
2016-09-19T08:04:15.817Z,232
2016-09-19T08:04:56.548Z,240
2016-09-19T08:05:37.189Z,240
2016-09-19T08:06:17.929Z,240
2016-09-19T08:06:58.591Z,240
2016-09-19T08:07:39.334Z,228
2016-09-19T08:08:20.067Z,228
2016-09-19T08:09:00.760Z,232
2016-09-19T08:09:41.445Z,236
2016-09-19T08:10:22.060Z,228
2016-09-19T08:11:02.782Z,232
2016-09-19T08:11:43.473Z,184
2016-09-19T08:12:24.183Z,232
2016-09-19T08:13:04.915Z,236
2016-09-19T08:13:45.651Z,236
2016-09-19T08:14:26.333Z,232
2016-09-19T08:15:07.675Z,228
2016-09-19T08:15:47.757Z,232
2016-09-19T08:16:28.494Z,232
2016-09-19T08:17:09.194Z,228
2016-09-19T08:17:49.906Z,224
2016-09-19T08:18:30.607Z,224
2016-09-19T08:19:11.254Z,228
2016-09-19T08:19:51.983Z,208
2016-09-19T08:20:32.683Z,228
2016-09-19T08:21:13.407Z,232
2016-09-19T08:21:54.112Z,228
2016-09-19T08:22:34.864Z,228
2016-09-19T08:23:15.605Z,232
2016-09-19T08:23:56.283Z,236
2016-09-19T08:24:36.955Z,232
2016-09-19T08:25:18.308Z,232
2016-09-19T08:25:58.983Z,232
2016-09-19T08:26:39.725Z,232
2016-09-19T08:27:20.418Z,232
2016-09-19T08:28:01.128Z,236
2016-09-19T08:28:41.806Z,220
2016-09-19T08:29:22.483Z,236
2016-09-19T08:30:03.169Z,232
2016-09-19T08:30:43.867Z,232
2016-09-19T08:31:24.536Z,232
2016-09-19T08:32:05.253Z,232
2016-09-19T08:32:45.925Z,232
2016-09-19T08:33:26.643Z,244
2016-09-19T08:34:07.394Z,240
2016-09-19T08:34:48.092Z,248
2016-09-19T08:35:29.053Z,248
2016-09-19T08:36:11.952Z,248
2016-09-19T08:36:52.891Z,248
2016-09-19T08:37:33.581Z,244
2016-09-19T08:38:14.290Z,248
2016-09-19T08:38:54.966Z,244
2016-09-19T08:39:35.684Z,248
2016-09-19T08:40:16.445Z,244
2016-09-19T08:40:57.122Z,244
2016-09-19T08:41:37.767Z,244
2016-09-19T08:42:18.493Z,244
2016-09-19T08:42:59.211Z,244
2016-09-19T08:43:39.866Z,244
2016-09-19T08:44:20.584Z,244
2016-09-19T08:45:01.298Z,244
2016-09-19T08:45:42.041Z,244
2016-09-19T08:46:22.757Z,244
2016-09-19T08:47:03.442Z,244
2016-09-19T08:47:44.155Z,244
2016-09-19T08:48:24.852Z,244
2016-09-19T08:49:05.589Z,248
2016-09-19T08:49:46.227Z,244
2016-09-19T08:50:26.964Z,244
2016-09-19T08:51:07.675Z,248
2016-09-19T08:51:48.392Z,248
2016-09-19T08:52:29.198Z,244
2016-09-19T08:53:09.985Z,244
2016-09-19T08:53:50.819Z,244
2016-09-19T08:54:31.725Z,244
2016-09-19T08:55:12.310Z,244
2016-09-19T08:55:53.067Z,244
2016-09-19T08:56:33.858Z,244
2016-09-19T08:57:14.553Z,244
2016-09-19T08:57:55.368Z,244
2016-09-19T08:58:36.170Z,244
2016-09-19T08:59:16.991Z,244
2016-09-19T08:59:57.762Z,244
2016-09-19T09:00:38.467Z,244
2016-09-19T09:01:19.232Z,244
2016-09-19T09:01:59.906Z,244
2016-09-19T09:02:40.664Z,244
2016-09-19T09:03:21.801Z,248
2016-09-19T09:04:02.621Z,248
2016-09-19T09:04:43.359Z,248
2016-09-19T09:05:24.109Z,248
2016-09-19T09:06:04.821Z,244
2016-09-19T09:06:45.510Z,248
2016-09-19T09:07:26.225Z,244
2016-09-19T09:08:06.912Z,244
2016-09-19T09:08:47.633Z,244
2016-09-19T09:09:28.331Z,244
2016-09-19T09:10:09.799Z,244
2016-09-19T09:10:50.500Z,248
2016-09-19T09:11:31.208Z,248
2016-09-19T09:12:11.872Z,244
2016-09-19T09:12:52.629Z,244
2016-09-19T09:13:34.308Z,244
2016-09-19T09:14:15.039Z,244
2016-09-19T09:14:55.768Z,248
2016-09-19T09:15:36.424Z,248
2016-09-19T09:16:17.098Z,244
2016-09-19T09:16:57.890Z,244
2016-09-19T09:17:38.605Z,248
2016-09-19T09:18:19.308Z,248
2016-09-19T09:18:59.950Z,248
2016-09-19T09:19:40.651Z,244
2016-09-19T09:20:21.380Z,244
2016-09-19T09:21:02.056Z,244
2016-09-19T09:21:42.731Z,244
2016-09-19T09:22:23.390Z,248
2016-09-19T09:23:04.165Z,244
2016-09-19T09:23:44.869Z,244
2016-09-19T09:24:25.543Z,240
2016-09-19T09:25:06.272Z,244
2016-09-19T09:25:46.992Z,244
2016-09-19T09:26:27.713Z,240
2016-09-19T09:27:08.410Z,240
2016-09-19T09:27:49.041Z,240
2016-09-19T09:28:29.765Z,244
2016-09-19T09:29:10.407Z,248
2016-09-19T09:29:51.135Z,240
2016-09-19T09:30:31.838Z,244
2016-09-19T09:31:12.559Z,240
2016-09-19T09:31:53.703Z,248
2016-09-19T09:32:33.886Z,244
2016-09-19T09:33:14.629Z,244
2016-09-19T09:33:55.356Z,244
2016-09-19T09:34:36.076Z,244
2016-09-19T09:35:16.763Z,240
2016-09-19T09:35:57.438Z,248
2016-09-19T09:36:38.291Z,248
2016-09-19T09:37:18.990Z,240
2016-09-19T09:37:59.686Z,240
2016-09-19T09:38:40.389Z,244
2016-09-19T09:39:21.114Z,236
2016-09-19T09:40:01.801Z,244
2016-09-19T09:40:42.444Z,240
2016-09-19T09:41:23.163Z,236
2016-09-19T09:42:03.910Z,240
2016-09-19T09:42:44.654Z,244
2016-09-19T09:43:25.354Z,244
2016-09-19T09:44:06.102Z,244
2016-09-19T09:44:46.867Z,244
2016-09-19T09:45:27.539Z,244
2016-09-19T09:46:08.253Z,244
2016-09-19T09:46:48.952Z,244